Main page
METAR-TAF:

METAR-TAF

Airports :

Doha International Airport

Doha, Qatar

latitude: 25-15-40N, longitude: 051-33-54E, elevation: 11 m

Current weather observation

The report was made 9 hours and 1 minutes ago, at 05:00 UTC
Wind 7 kt from the West/Northwest, varying between West/Southwest and Northwest
Temperature 37°C
Humidity 33%
Pressure 1000 hPa
Visibility 10 km or more
no clouds below 1500 m and no cumulonimbus

METAR: OTBD 210500Z 29007KT 250V320 CAVOK 37/18 Q1000 NOSIG

Time: 17:01 (14:01 UTC)

Forecast

The report was made 14 hours and 58 minutes ago, at 23:03 UTC
Forecast valid from 20 at 00 UTC to 21 at 06 UTC
Wind 8 kt from the Northwest
Visibility 10 km or more
no clouds below 1500 m and no cumulonimbus
Becoming
from 20 at 08 UTC to 20 at 10 UTC
Wind 10 kt from the North/Northeast
Becoming
from 20 at 14 UTC to 20 at 16 UTC
Wind 8 kt from the West/Northwest

TAF: OTBD 192303Z 2000/2106 32008KT CAVOK BECMG 2008/2010 02010KT BECMG 2014/2016 30008KT

Weather observations and forecasts of more than 4000 airports (METAR and TAF reports).

The available stations are represented by yellow and red dots on the map.

Hover mouse over dot to see the name of the station.

Then click to see weather observations and forecasts.

To change the map : click on the green buttons with a black cross to zoom in, on the green button with a dash to zoom out, or on the green arrows for adjacent maps.


METAR-TAF: